Time;durP1;ratioP1;P1;durP2;ratioP2;P2;SDS_P1;SDS_P2;PMS_P1;PMS_P2;Temp;Humidity;BMP_temperature;BMP_pressure;BME280_temperature;BME280_humidity;BME280_pressure;Samples;Min_cycle;Max_cycle;Signal;HPM_P1;HPM_P2
2023/01/04 00:00:26;;;;;;;8.20;1.88;;;10.60;77.50;;;;;;5053926;28;20075;-75
2023/01/04 00:02:52;;;;;;;5.53;1.67;;;10.60;77.50;;;;;;5029128;28;20028;-75
2023/01/04 00:05:18;;;;;;;4.90;1.65;;;10.60;77.60;;;;;;5039599;28;20041;-75
2023/01/04 00:07:44;;;;;;;7.18;1.70;;;10.60;77.60;;;;;;5024010;28;20057;-75
2023/01/04 00:10:09;;;;;;;7.25;1.70;;;10.60;77.70;;;;;;5022009;28;20480;-75
2023/01/04 00:12:35;;;;;;;6.85;2.35;;;10.60;77.80;;;;;;5051537;28;20033;-75
2023/01/04 00:15:01;;;;;;;5.03;1.77;;;10.60;78.00;;;;;;5024828;28;20124;-75
2023/01/04 00:17:29;;;;;;;6.30;2.03;;;10.60;78.10;;;;;;5033379;28;20033;-76
2023/01/04 00:19:54;;;;;;;5.40;2.00;;;10.60;78.30;;;;;;5046832;28;20055;-75
2023/01/04 00:22:21;;;;;;;6.20;1.90;;;10.60;78.40;;;;;;5036289;28;20017;-75
2023/01/04 00:24:47;;;;;;;6.00;2.15;;;10.60;78.60;;;;;;5029239;28;20421;-76
2023/01/04 00:27:12;;;;;;;6.40;2.10;;;10.60;78.70;;;;;;5061886;28;20151;-76
2023/01/04 00:29:40;;;;;;;4.93;1.65;;;10.50;78.80;;;;;;5014039;28;20061;-75
2023/01/04 00:32:22;;;;;;;4.88;1.85;;;10.50;79.00;;;;;;5069117;28;20048;-75
2023/01/04 00:34:48;;;;;;;6.82;1.92;;;10.50;79.10;;;;;;5062872;28;20021;-76
2023/01/04 00:37:13;;;;;;;6.93;1.73;;;10.50;79.30;;;;;;5069886;28;20347;-75
2023/01/04 00:39:39;;;;;;;6.72;2.10;;;10.50;79.40;;;;;;5045013;28;20025;-75
2023/01/04 00:42:05;;;;;;;5.35;1.65;;;10.50;79.60;;;;;;5067859;28;20025;-75
2023/01/04 00:44:33;;;;;;;4.93;1.95;;;10.60;79.60;;;;;;5053513;28;20530;-75
2023/01/04 00:47:00;;;;;;;4.28;1.40;;;10.50;79.70;;;;;;5038356;28;20204;-75
2023/01/04 00:49:30;;;;;;;6.35;2.13;;;10.60;79.90;;;;;;5039192;28;20056;-75
2023/01/04 00:51:56;;;;;;;7.07;2.30;;;10.50;79.90;;;;;;5045562;28;20029;-75
2023/01/04 00:54:22;;;;;;;5.20;1.70;;;10.60;80.20;;;;;;5043757;28;20028;-75
2023/01/04 00:56:49;;;;;;;4.28;1.70;;;10.50;80.30;;;;;;5044091;28;20047;-75
2023/01/04 00:59:18;;;;;;;5.68;2.15;;;10.50;80.40;;;;;;5054989;28;20025;-75
2023/01/04 01:01:44;;;;;;;5.90;1.58;;;10.50;80.70;;;;;;5045823;28;20025;-75
2023/01/04 01:04:16;;;;;;;6.65;1.90;;;10.50;80.70;;;;;;5053841;28;20037;-75
2023/01/04 01:06:42;;;;;;;;;;;10.50;80.80;;;;;;5054551;28;20413;-75
2023/01/04 01:09:08;;;;;;;6.20;1.60;;;10.50;80.70;;;;;;5032644;28;20004;-75
2023/01/04 01:11:38;;;;;;;6.43;1.63;;;10.50;80.90;;;;;;5034181;28;20033;-75
2023/01/04 01:14:05;;;;;;;4.18;1.60;;;10.50;81.00;;;;;;5050043;28;20033;-75
2023/01/04 01:16:33;;;;;;;6.30;1.90;;;10.50;81.20;;;;;;5052523;28;20366;-75
2023/01/04 01:19:00;;;;;;;5.82;1.90;;;10.50;81.40;;;;;;5053810;28;20025;-75
2023/01/04 01:21:28;;;;;;;4.65;1.58;;;10.50;81.50;;;;;;5053655;28;20450;-75
2023/01/04 01:23:55;;;;;;;4.15;1.40;;;10.50;81.70;;;;;;5019129;28;20049;-75
2023/01/04 01:26:22;;;;;;;5.38;1.50;;;10.50;81.70;;;;;;5049923;28;20034;-75
2023/01/04 01:28:49;;;;;;;5.95;1.55;;;10.50;81.80;;;;;;5027492;28;20053;-75
2023/01/04 01:31:17;;;;;;;5.28;1.60;;;10.60;82.00;;;;;;5052802;28;20075;-75
2023/01/04 01:33:45;;;;;;;3.08;1.35;;;10.60;82.10;;;;;;5030619;28;20029;-75
2023/01/04 01:36:12;;;;;;;4.57;1.30;;;10.50;82.10;;;;;;5019939;28;20112;-75
2023/01/04 01:38:38;;;;;;;5.28;1.58;;;10.50;82.30;;;;;;5031893;28;20045;-75
2023/01/04 01:41:05;;;;;;;3.95;1.55;;;10.60;82.40;;;;;;5048121;28;20071;-74
2023/01/04 01:43:50;;;;;;;5.55;1.42;;;10.60;82.40;;;;;;5019177;28;20087;-74
2023/01/04 01:46:22;;;;;;;4.95;1.88;;;10.60;82.50;;;;;;5075331;28;20024;-75
2023/01/04 01:48:52;;;;;;;5.35;1.60;;;10.60;82.70;;;;;;5019203;28;20133;-75
2023/01/04 01:51:18;;;;;;;4.60;1.75;;;10.60;82.80;;;;;;5033957;28;20033;-75
2023/01/04 01:53:47;;;;;;;5.20;1.50;;;10.60;82.90;;;;;;5033961;28;20018;-75
2023/01/04 01:56:16;;;;;;;4.20;1.70;;;10.60;83.00;;;;;;5054572;28;20021;-75
2023/01/04 01:58:48;;;;;;;4.25;1.60;;;10.60;83.10;;;;;;5035696;28;20032;-75
2023/01/04 02:01:14;;;;;;;4.97;1.60;;;10.60;83.20;;;;;;5006209;28;20053;-75
2023/01/04 02:03:41;;;;;;;4.53;1.65;;;10.60;83.20;;;;;;5072597;28;20020;-76
2023/01/04 02:06:10;;;;;;;6.47;1.80;;;10.60;83.30;;;;;;5037045;28;20029;-75
2023/01/04 02:08:38;;;;;;;4.07;1.73;;;10.60;83.40;;;;;;5054468;28;20029;-75
2023/01/04 02:11:04;;;;;;;3.90;1.60;;;10.60;83.50;;;;;;5054996;28;20096;-75
2023/01/04 02:16:49;;;;;;;2.80;1.15;;;10.60;83.60;;;;;;5044597;28;20033;-75
2023/01/04 02:19:21;;;;;;;3.15;1.40;;;10.70;83.60;;;;;;5058531;28;20025;-75
2023/01/04 02:22:15;;;;;;;3.63;1.60;;;10.70;83.60;;;;;;5072999;28;20029;-75
2023/01/04 02:24:59;;;;;;;3.13;1.40;;;10.70;83.70;;;;;;5038915;28;20103;-75
2023/01/04 02:27:46;;;;;;;3.10;1.40;;;10.70;83.80;;;;;;5040258;28;20361;-75
2023/01/04 02:30:30;;;;;;;2.65;1.17;;;10.70;83.70;;;;;;5057959;28;20041;-75
2023/01/04 02:33:37;;;;;;;3.40;1.25;;;10.70;83.80;;;;;;5038919;28;20363;-75
2023/01/04 02:36:31;;;;;;;2.92;1.63;;;10.70;83.80;;;;;;5029261;28;20052;-76
2023/01/04 02:39:03;;;;;;;3.55;1.40;;;10.80;84.00;;;;;;5056186;28;20025;-75
2023/01/04 02:41:39;;;;;;;4.93;1.40;;;10.80;84.00;;;;;;5055759;28;20021;-75
2023/01/04 02:50:31;;;;;;;3.95;1.50;;;10.80;84.30;;;;;;5042848;28;20155;-75
2023/01/04 02:53:19;;;;;;;2.90;1.35;;;10.80;84.30;;;;;;5049962;28;20033;-75
2023/01/04 02:56:04;;;;;;;5.25;1.80;;;10.80;84.50;;;;;;5054102;28;20079;-75
2023/01/04 02:58:48;;;;;;;8.30;1.67;;;10.80;84.50;;;;;;5059684;28;20140;-75
2023/01/04 03:07:23;;;;;;;2.35;1.35;;;10.90;84.80;;;;;;5055549;28;20071;-75
2023/01/04 03:09:56;;;;;;;3.70;1.30;;;10.90;84.70;;;;;;5035553;28;20049;-75
2023/01/04 03:12:31;;;;;;;2.58;1.20;;;10.90;84.80;;;;;;5025181;28;20039;-75
2023/01/04 03:15:15;;;;;;;2.83;1.08;;;10.90;84.90;;;;;;5037171;28;20046;-75
2023/01/04 03:18:12;;;;;;;2.30;1.15;;;10.90;85.00;;;;;;5020503;28;20326;-75
2023/01/04 03:20:42;;;;;;;2.88;1.35;;;10.90;85.00;;;;;;5034855;28;20116;-75
2023/01/04 03:43:08;;;;;;;3.60;1.17;;;11.00;85.20;;;;;;5071045;28;20036;-75
2023/01/04 03:50:43;;;;;;;2.90;1.30;;;11.00;85.50;;;;;;5130890;27;20121;-75
2023/01/04 03:53:11;;;;;;;2.67;1.10;;;11.10;85.50;;;;;;5106067;27;20517;-75
2023/01/04 03:55:39;;;;;;;2.30;1.10;;;11.10;85.50;;;;;;5132144;27;20110;-75
2023/01/04 03:58:05;;;;;;;1.98;1.08;;;11.10;85.60;;;;;;5130029;27;20084;-75
2023/01/04 04:00:32;;;;;;;2.70;1.10;;;11.10;85.70;;;;;;5127692;27;20106;-74
2023/01/04 04:03:08;;;;;;;2.35;1.30;;;11.10;86.10;;;;;;5136071;27;20047;-74
2023/01/04 04:08:27;;;;;;;3.45;1.23;;;11.10;86.10;;;;;;5145870;27;20032;-75
2023/01/04 04:11:44;;;;;;;3.95;1.30;;;11.10;86.10;;;;;;5135098;27;20019;-75
2023/01/04 04:13:49;;;;;;;2.25;1.15;;;11.10;86.10;;;;;;5122417;27;20047;-75
2023/01/04 04:16:16;;;;;;;2.67;1.20;;;11.20;86.20;;;;;;5141034;27;20034;-75
2023/01/04 04:18:42;;;;;;;2.60;1.25;;;11.20;86.10;;;;;;5136341;27;20365;-75
2023/01/04 04:21:08;;;;;;;4.45;1.33;;;11.20;86.20;;;;;;5131621;28;20034;-75
2023/01/04 04:23:35;;;;;;;2.40;1.10;;;11.20;86.20;;;;;;5129533;27;20032;-75
2023/01/04 04:26:01;;;;;;;2.83;1.48;;;11.30;86.30;;;;;;5131315;28;20055;-75
2023/01/04 04:28:27;;;;;;;4.28;1.48;;;11.30;86.30;;;;;;5130444;27;20026;-75
2023/01/04 04:30:54;;;;;;;2.78;1.30;;;11.30;86.30;;;;;;5131324;27;20023;-75
2023/01/04 04:33:20;;;;;;;3.03;1.50;;;11.30;86.30;;;;;;5122150;27;20023;-75
2023/01/04 04:35:53;;;;;;;4.72;1.90;;;11.30;86.40;;;;;;5115008;27;20034;-75
2023/01/04 04:38:19;;;;;;;3.55;1.77;;;11.30;86.40;;;;;;5127097;28;20038;-75
2023/01/04 04:43:31;;;;;;;3.60;1.60;;;11.40;86.50;;;;;;5129586;27;20047;-75
2023/01/04 04:45:57;;;;;;;3.40;1.60;;;11.40;86.50;;;;;;5131061;27;20018;-74
2023/01/04 04:48:23;;;;;;;3.72;1.77;;;11.40;86.50;;;;;;5113870;28;20124;-75
2023/01/04 04:50:49;;;;;;;3.67;1.80;;;11.40;86.50;;;;;;5130272;27;20118;-75
2023/01/04 04:53:15;;;;;;;4.30;1.88;;;11.50;86.60;;;;;;5112526;28;20100;-75
2023/01/04 04:55:41;;;;;;;3.72;1.73;;;11.50;86.70;;;;;;5115189;28;20110;-75
2023/01/04 04:58:07;;;;;;;5.28;1.90;;;11.50;86.70;;;;;;5116689;28;20020;-75
2023/01/04 05:00:32;;;;;;;3.92;1.75;;;11.50;86.70;;;;;;5111089;28;20508;-75
2023/01/04 05:03:00;;;;;;;4.78;1.50;;;11.50;86.70;;;;;;5112253;27;20371;-74
2023/01/04 05:05:29;;;;;;;3.80;1.92;;;11.50;86.80;;;;;;5102033;28;20084;-75
2023/01/04 05:07:54;;;;;;;2.95;1.50;;;11.50;86.90;;;;;;5117849;28;20503;-74
2023/01/04 05:10:20;;;;;;;3.95;1.52;;;11.50;86.90;;;;;;5117106;28;20119;-74
2023/01/04 05:12:58;;;;;;;2.90;1.60;;;11.50;86.90;;;;;;5099484;28;20023;-75
2023/01/04 05:15:27;;;;;;;6.43;2.10;;;11.60;87.00;;;;;;5117148;28;20053;-74
2023/01/04 05:17:55;;;;;;;4.13;1.80;;;11.50;87.10;;;;;;5116900;28;20024;-75
2023/01/04 05:20:20;;;;;;;5.93;1.90;;;11.50;87.10;;;;;;5131547;27;20019;-74
2023/01/04 05:22:46;;;;;;;4.90;1.90;;;11.60;87.20;;;;;;5115615;27;20448;-75
2023/01/04 05:25:12;;;;;;;4.00;1.60;;;11.60;87.30;;;;;;5110403;28;20428;-75
2023/01/04 05:27:38;;;;;;;4.60;1.80;;;11.50;87.30;;;;;;5116851;28;20051;-75
2023/01/04 05:32:49;;;;;;;4.95;1.80;;;11.60;87.40;;;;;;5129842;27;20024;-74
2023/01/04 05:35:16;;;;;;;3.15;1.67;;;11.60;87.40;;;;;;5114179;27;20076;-74
2023/01/04 05:37:42;;;;;;;4.00;1.92;;;11.60;87.50;;;;;;5096788;28;20131;-75
2023/01/04 05:40:09;;;;;;;3.25;1.67;;;11.60;87.60;;;;;;5113781;28;20489;-75
2023/01/04 05:42:36;;;;;;;4.05;1.70;;;11.60;87.60;;;;;;5114523;27;20497;-75
2023/01/04 05:45:02;;;;;;;5.35;1.80;;;11.60;87.60;;;;;;5103762;27;20039;-74
2023/01/04 05:47:28;;;;;;;4.25;1.77;;;11.60;87.60;;;;;;5111056;27;20440;-75
2023/01/04 05:49:54;;;;;;;4.60;1.90;;;11.60;88.30;;;;;;5108109;27;20075;-75
2023/01/04 05:52:22;;;;;;;4.65;1.77;;;11.60;87.70;;;;;;5115123;28;20461;-76
2023/01/04 05:54:49;;;;;;;5.03;1.83;;;11.60;87.70;;;;;;5123729;27;20011;-74
2023/01/04 05:57:17;;;;;;;3.55;1.63;;;11.70;87.80;;;;;;5114434;28;20019;-74
2023/01/04 05:59:44;;;;;;;3.95;1.80;;;11.70;87.90;;;;;;5116598;27;20024;-74
2023/01/04 06:02:16;;;;;;;4.10;1.90;;;11.70;87.80;;;;;;5119116;27;20050;-75
2023/01/04 06:04:43;;;;;;;4.05;1.85;;;11.70;87.90;;;;;;5098074;28;20356;-75
2023/01/04 06:07:08;;;;;;;4.68;1.88;;;11.70;87.90;;;;;;5080434;27;20156;-75
2023/01/04 06:09:34;;;;;;;4.05;1.88;;;11.70;87.90;;;;;;5095495;28;20385;-75
2023/01/04 06:12:00;;;;;;;4.05;2.05;;;11.70;88.00;;;;;;5111366;28;20031;-75
2023/01/04 06:14:26;;;;;;;4.95;2.00;;;11.70;88.70;;;;;;5101712;28;20113;-75
2023/01/04 06:16:52;;;;;;;8.10;2.10;;;11.70;88.10;;;;;;5113692;28;20088;-75
2023/01/04 06:19:18;;;;;;;3.50;1.75;;;11.70;88.50;;;;;;5114932;28;20110;-75
2023/01/04 06:21:43;;;;;;;3.83;1.75;;;11.80;88.30;;;;;;5080075;28;20046;-75
2023/01/04 06:24:10;;;;;;;4.55;2.00;;;11.70;88.30;;;;;;5113476;28;20046;-76
2023/01/04 06:26:36;;;;;;;4.07;1.73;;;11.70;88.30;;;;;;5093960;28;20032;-76
2023/01/04 06:29:01;;;;;;;4.53;1.80;;;11.80;88.30;;;;;;5101622;27;20079;-76
2023/01/04 06:31:29;;;;;;;2.97;1.63;;;11.80;88.30;;;;;;5115215;28;20028;-77
2023/01/04 06:33:55;;;;;;;3.97;1.88;;;11.80;88.30;;;;;;5115604;27;20462;-77
2023/01/04 06:36:21;;;;;;;4.65;1.80;;;11.80;88.30;;;;;;5098484;28;20031;-77
2023/01/04 06:38:50;;;;;;;4.45;1.70;;;11.80;88.40;;;;;;5115326;28;20042;-77
2023/01/04 06:41:16;;;;;;;3.67;1.80;;;11.80;88.40;;;;;;5114971;28;20031;-77
2023/01/04 06:43:42;;;;;;;3.08;1.65;;;11.90;88.40;;;;;;5119180;27;20057;-76
2023/01/04 06:46:08;;;;;;;3.72;1.70;;;11.90;88.40;;;;;;5121593;27;20011;-77
2023/01/04 06:48:34;;;;;;;4.03;1.88;;;11.90;88.50;;;;;;5115141;28;20054;-76
2023/01/04 06:51:00;;;;;;;5.15;1.95;;;11.90;88.40;;;;;;5114337;28;20437;-77
2023/01/04 06:53:29;;;;;;;6.30;1.95;;;11.90;88.50;;;;;;5097902;28;20023;-76
2023/01/04 06:55:55;;;;;;;4.45;2.17;;;11.90;89.20;;;;;;5103167;28;20024;-77
2023/01/04 06:58:23;;;;;;;3.92;1.70;;;11.90;88.50;;;;;;5097971;28;20054;-77
2023/01/04 07:00:54;;;;;;;3.78;1.63;;;11.90;88.60;;;;;;5110829;28;20035;-77
2023/01/04 07:03:20;;;;;;;4.90;1.83;;;11.90;88.60;;;;;;5114984;28;20073;-76
2023/01/04 07:05:46;;;;;;;3.75;1.73;;;11.90;88.70;;;;;;5081125;28;20280;-77
2023/01/04 07:08:13;;;;;;;5.50;1.80;;;11.90;88.60;;;;;;5098129;28;20019;-77
2023/01/04 07:10:39;;;;;;;5.40;2.05;;;12.00;89.30;;;;;;5125904;27;20026;-76
2023/01/04 07:13:06;;;;;;;3.42;1.85;;;12.00;88.60;;;;;;5105640;28;20028;-76
2023/01/04 07:15:31;;;;;;;3.95;1.80;;;12.00;88.60;;;;;;5129744;27;20070;-76
2023/01/04 07:17:57;;;;;;;4.15;1.75;;;12.00;88.60;;;;;;5113318;28;20052;-76
2023/01/04 07:20:23;;;;;;;4.13;1.95;;;12.00;88.60;;;;;;5106519;28;20443;-76
2023/01/04 07:22:49;;;;;;;4.50;1.83;;;12.00;89.20;;;;;;5113428;28;20054;-76
2023/01/04 07:25:16;;;;;;;4.32;1.75;;;12.10;88.60;;;;;;5112914;28;20051;-79
2023/01/04 07:27:41;;;;;;;4.80;1.90;;;12.10;88.60;;;;;;5114818;28;20043;-74
2023/01/04 07:30:08;;;;;;;3.88;1.80;;;12.10;88.60;;;;;;5114148;28;20332;-76
2023/01/04 07:32:35;;;;;;;5.25;1.90;;;12.10;88.60;;;;;;5096204;28;20036;-78
2023/01/04 07:35:01;;;;;;;4.40;1.98;;;12.10;88.60;;;;;;5096571;28;20490;-75
2023/01/04 07:37:27;;;;;;;5.38;1.88;;;12.10;88.60;;;;;;5114219;28;20020;-78
2023/01/04 07:39:53;;;;;;;4.72;2.42;;;12.10;88.70;;;;;;5114028;28;20049;-73
2023/01/04 07:42:20;;;;;;;4.45;1.73;;;12.10;88.70;;;;;;5100768;28;20055;-78
2023/01/04 07:44:47;;;;;;;5.45;1.80;;;12.10;88.60;;;;;;5096913;28;20020;-75
2023/01/04 07:47:22;;;;;;;5.68;1.80;;;12.10;88.60;;;;;;5130533;28;20448;-77
2023/01/04 07:49:49;;;;;;;7.88;2.10;;;12.20;88.70;;;;;;5109253;28;20455;-78
2023/01/04 07:52:15;;;;;;;5.22;1.80;;;12.20;88.80;;;;;;5076320;28;20421;-77
2023/01/04 07:54:44;;;;;;;6.18;2.25;;;12.20;89.30;;;;;;5113456;28;20036;-77
2023/01/04 07:57:10;;;;;;;3.22;1.55;;;12.20;88.80;;;;;;5129757;28;20026;-77
2023/01/04 07:59:36;;;;;;;5.03;2.22;;;12.20;88.70;;;;;;5115435;28;20351;-78
2023/01/04 08:02:01;;;;;;;4.60;1.85;;;12.20;88.70;;;;;;5108795;28;20039;-78
2023/01/04 08:04:28;;;;;;;6.50;2.00;;;12.20;88.70;;;;;;5122598;28;20027;-77
2023/01/04 08:06:55;;;;;;;4.70;1.80;;;12.20;88.70;;;;;;5118428;28;20023;-76
2023/01/04 08:09:21;;;;;;;3.42;1.98;;;12.20;88.70;;;;;;5113806;28;20031;-77
2023/01/04 08:11:47;;;;;;;5.00;1.90;;;12.20;88.80;;;;;;5113644;28;20321;-79
2023/01/04 08:14:13;;;;;;;8.88;2.58;;;12.20;88.80;;;;;;5110827;28;20038;-79
2023/01/04 08:16:41;;;;;;;4.07;1.85;;;12.20;88.80;;;;;;5112043;28;20035;-79
2023/01/04 08:19:16;;;;;;;5.57;2.20;;;12.20;88.80;;;;;;5095247;28;20066;-76
2023/01/04 08:21:42;;;;;;;6.55;2.75;;;12.20;88.90;;;;;;5110092;28;20081;-79
2023/01/04 08:24:16;;;;;;;4.75;2.20;;;12.20;88.80;;;;;;5110028;28;20028;-78
2023/01/04 08:26:48;;;;;;;4.47;2.28;;;12.20;88.90;;;;;;5108154;28;20386;-80
2023/01/04 08:29:15;;;;;;;4.93;2.05;;;12.20;88.90;;;;;;5114334;28;20510;-79
2023/01/04 08:31:45;;;;;;;5.35;2.25;;;12.20;88.90;;;;;;5115901;28;20106;-80
2023/01/04 08:34:12;;;;;;;4.93;2.17;;;12.20;88.90;;;;;;5097033;28;20028;-79
2023/01/04 08:36:48;;;;;;;4.93;2.30;;;12.30;89.00;;;;;;5116142;28;20043;-79
2023/01/04 08:39:14;;;;;;;5.25;2.10;;;12.30;89.00;;;;;;5115478;28;20035;-79
2023/01/04 08:41:55;;;;;;;5.22;2.30;;;12.30;89.00;;;;;;5115576;28;20035;-76
2023/01/04 08:44:22;;;;;;;5.97;2.10;;;12.30;89.00;;;;;;5110753;27;20048;-76
2023/01/04 08:46:49;;;;;;;3.75;1.88;;;12.30;89.00;;;;;;5108949;27;20376;-74
2023/01/04 08:49:17;;;;;;;7.78;2.17;;;12.30;89.00;;;;;;5105247;27;20019;-78
2023/01/04 08:51:47;;;;;;;5.40;2.33;;;12.30;89.00;;;;;;5112749;27;20035;-81
2023/01/04 08:54:17;;;;;;;5.45;2.30;;;12.30;89.00;;;;;;5118826;27;20039;-80
2023/01/04 08:56:52;;;;;;;4.55;1.70;;;12.30;89.10;;;;;;5122309;27;20028;-76
2023/01/04 08:59:21;;;;;;;3.85;2.00;;;12.40;89.10;;;;;;5127901;27;20042;-80
2023/01/04 09:01:46;;;;;;;3.97;1.98;;;12.40;89.20;;;;;;5106664;27;20119;-77
2023/01/04 09:04:12;;;;;;;4.15;1.88;;;12.40;89.20;;;;;;5123580;27;20106;-76
2023/01/04 09:06:46;;;;;;;4.70;1.92;;;12.40;89.20;;;;;;5107719;27;20019;-80
2023/01/04 09:09:13;;;;;;;5.47;2.13;;;12.40;89.30;;;;;;5138216;27;20135;-79
2023/01/04 09:11:39;;;;;;;4.30;1.92;;;12.40;89.30;;;;;;5119084;27;20019;-78
2023/01/04 09:14:07;;;;;;;5.13;2.15;;;12.40;89.30;;;;;;5121675;27;20034;-76
2023/01/04 09:16:33;;;;;;;5.15;2.30;;;12.40;89.40;;;;;;5120361;27;20426;-77
2023/01/04 09:18:59;;;;;;;4.90;2.25;;;12.40;89.40;;;;;;5105875;27;20035;-78
2023/01/04 09:21:27;;;;;;;3.70;1.67;;;12.40;89.40;;;;;;5117600;27;20024;-75
2023/01/04 09:23:56;;;;;;;5.15;1.92;;;12.50;89.40;;;;;;5118569;27;20077;-77
2023/01/04 09:26:22;;;;;;;4.78;2.20;;;12.50;89.40;;;;;;5133627;27;20051;-76
2023/01/04 09:28:53;;;;;;;4.07;1.88;;;12.50;89.40;;;;;;5120227;27;20030;-75
2023/01/04 09:31:26;;;;;;;3.97;1.92;;;12.50;89.50;;;;;;5123110;27;20031;-76
2023/01/04 09:33:53;;;;;;;5.43;1.80;;;12.50;89.50;;;;;;5106121;27;20047;-77
2023/01/04 09:36:20;;;;;;;6.97;2.20;;;12.50;89.40;;;;;;5116332;27;20023;-77
2023/01/04 09:38:46;;;;;;;6.68;1.95;;;12.50;89.40;;;;;;5126677;27;20019;-78
2023/01/04 09:41:33;;;;;;;3.70;1.98;;;12.50;89.40;;;;;;5124620;27;20512;-78
2023/01/04 09:44:16;;;;;;;7.22;2.55;;;12.50;89.50;;;;;;5125533;27;20054;-78
2023/01/04 09:46:53;;;;;;;7.82;2.35;;;12.60;89.50;;;;;;5107121;27;20031;-80
2023/01/04 09:49:46;;;;;;;4.78;2.17;;;12.60;89.50;;;;;;5099830;28;20119;-80
2023/01/04 09:52:22;;;;;;;5.95;2.35;;;12.60;89.50;;;;;;5104872;28;20425;-78
2023/01/04 09:54:54;;;;;;;4.60;2.30;;;12.60;89.60;;;;;;5112866;27;20015;-78
2023/01/04 09:57:34;;;;;;;6.22;2.47;;;12.60;89.60;;;;;;5113806;28;20036;-79
2023/01/04 10:00:16;;;;;;;6.03;2.08;;;12.60;89.60;;;;;;5111839;27;20031;-76
2023/01/04 10:02:45;;;;;;;;;;;12.60;89.60;;;;;;5112519;27;20019;-76
2023/01/04 10:05:19;;;;;;;4.53;1.63;;;12.60;89.40;;;;;;5096299;28;19911;-74
2023/01/04 10:07:45;;;;;;;6.57;2.30;;;12.60;89.60;;;;;;5107852;27;20023;-74
2023/01/04 10:10:17;;;;;;;5.10;1.95;;;12.60;89.60;;;;;;5129331;27;20058;-74
2023/01/04 10:13:02;;;;;;;5.60;1.90;;;12.60;89.60;;;;;;5124097;27;20027;-73
2023/01/04 10:16:05;;;;;;;4.90;1.95;;;12.70;89.70;;;;;;5124895;27;20063;-74
2023/01/04 10:19:03;;;;;;;5.60;1.70;;;12.70;90.10;;;;;;5114616;27;20380;-76
2023/01/04 10:21:52;;;;;;;5.47;1.88;;;12.70;89.60;;;;;;5070315;28;20036;-75
2023/01/04 10:24:24;;;;;;;4.43;2.00;;;12.70;89.60;;;;;;5056015;28;20131;-76
2023/01/04 10:26:54;;;;;;;5.57;1.95;;;12.70;89.70;;;;;;5055412;28;20444;-75
2023/01/04 10:29:33;;;;;;;4.38;1.70;;;12.70;89.70;;;;;;5074913;28;20020;-75
2023/01/04 10:32:32;;;;;;;3.75;1.70;;;12.70;89.70;;;;;;5051300;28;20442;-76
2023/01/04 10:34:59;;;;;;;3.55;1.92;;;12.70;89.70;;;;;;5084951;28;20027;-75
2023/01/04 10:37:32;;;;;;;4.13;1.90;;;12.70;89.80;;;;;;5057932;28;20058;-77
2023/01/04 10:39:58;;;;;;;3.97;1.60;;;12.70;89.80;;;;;;5073118;28;20021;-76
2023/01/04 10:42:46;;;;;;;4.43;2.28;;;12.70;89.80;;;;;;5069319;28;20113;-76
2023/01/04 10:45:21;;;;;;;3.72;1.83;;;12.80;90.00;;;;;;5071649;28;20044;-77
2023/01/04 10:48:12;;;;;;;5.45;1.92;;;12.70;89.90;;;;;;5071508;28;20098;-77
2023/01/04 10:50:56;;;;;;;4.93;1.85;;;12.80;90.00;;;;;;5055312;28;20036;-77
2023/01/04 10:53:32;;;;;;;3.22;1.50;;;12.70;89.80;;;;;;5039473;28;20119;-77
2023/01/04 10:56:15;;;;;;;4.10;1.77;;;12.80;90.00;;;;;;5057448;28;20029;-76
2023/01/04 10:58:46;;;;;;;3.80;2.10;;;12.80;90.00;;;;;;5094567;28;20032;-74
2023/01/04 11:01:17;;;;;;;4.13;1.80;;;12.80;90.00;;;;;;5128789;27;20028;-74
2023/01/04 11:03:52;;;;;;;3.92;2.00;;;12.80;90.00;;;;;;5113798;28;20032;-74
2023/01/04 11:06:33;;;;;;;2.95;1.58;;;12.80;90.00;;;;;;5112007;28;20039;-74
2023/01/04 11:09:11;;;;;;;5.15;1.88;;;12.80;90.00;;;;;;5114856;28;20483;-75
2023/01/04 11:11:45;;;;;;;4.07;1.90;;;12.80;90.00;;;;;;5113360;28;20024;-75
2023/01/04 11:14:12;;;;;;;3.63;1.52;;;12.80;90.00;;;;;;5113091;28;20040;-76
2023/01/04 11:16:45;;;;;;;3.53;1.50;;;12.90;90.00;;;;;;5109921;28;20058;-75
2023/01/04 11:19:11;;;;;;;3.28;1.70;;;12.90;90.00;;;;;;5114397;28;20114;-75
2023/01/04 11:21:49;;;;;;;3.40;1.50;;;12.90;90.00;;;;;;5095258;28;20397;-75
2023/01/04 11:24:16;;;;;;;2.75;1.70;;;12.90;90.00;;;;;;5111871;28;20422;-75
2023/01/04 11:26:43;;;;;;;4.18;1.88;;;12.90;90.00;;;;;;5114168;28;20394;-75
2023/01/04 11:29:39;;;;;;;3.08;1.48;;;12.90;90.00;;;;;;5096224;28;20020;-75
2023/01/04 11:32:29;;;;;;;4.03;1.85;;;12.90;90.00;;;;;;5112469;28;20028;-75
2023/01/04 11:34:56;;;;;;;4.28;1.90;;;12.90;90.00;;;;;;5112457;28;20039;-75
2023/01/04 11:37:23;;;;;;;4.90;1.88;;;12.90;90.00;;;;;;5113584;28;20440;-75
2023/01/04 11:39:49;;;;;;;3.45;1.73;;;12.90;90.00;;;;;;5094546;28;20036;-75
2023/01/04 11:42:21;;;;;;;3.25;1.58;;;12.90;90.00;;;;;;5094924;28;20040;-76
2023/01/04 11:44:57;;;;;;;2.63;1.50;;;12.90;90.10;;;;;;5111909;28;20019;-75
2023/01/04 11:47:24;;;;;;;4.57;1.60;;;13.00;90.10;;;;;;5113270;28;20042;-75
2023/01/04 11:49:50;;;;;;;3.22;1.50;;;13.00;90.10;;;;;;5113196;28;20372;-75
2023/01/04 11:52:35;;;;;;;5.25;1.63;;;13.00;90.10;;;;;;5096599;28;20024;-75
2023/01/04 11:55:22;;;;;;;3.05;1.50;;;13.00;90.10;;;;;;5106853;28;20020;-76
2023/01/04 11:57:57;;;;;;;2.78;1.45;;;13.00;90.10;;;;;;5112237;28;20022;-76
2023/01/04 12:00:23;;;;;;;2.88;1.48;;;13.00;90.10;;;;;;5110588;28;20362;-77
2023/01/04 12:02:52;;;;;;;2.78;1.60;;;13.00;90.10;;;;;;5114852;28;20039;-74
2023/01/04 12:05:20;;;;;;;3.03;1.42;;;13.00;90.10;;;;;;5112186;28;20027;-77
2023/01/04 12:07:47;;;;;;;2.35;1.30;;;13.00;90.10;;;;;;5118355;28;20427;-77
2023/01/04 12:10:25;;;;;;;4.15;1.60;;;13.00;90.10;;;;;;5115003;28;20059;-77
2023/01/04 12:12:52;;;;;;;2.63;1.40;;;13.00;90.10;;;;;;5108174;28;20023;-77
2023/01/04 12:15:26;;;;;;;4.00;1.63;;;13.00;90.10;;;;;;5095388;28;20939;-78
2023/01/04 12:17:58;;;;;;;3.60;1.88;;;13.10;90.10;;;;;;5119992;28;20028;-78
2023/01/04 12:20:27;;;;;;;3.28;1.77;;;13.10;90.10;;;;;;5121565;28;20063;-76
2023/01/04 12:22:53;;;;;;;3.55;1.75;;;13.10;90.10;;;;;;5124397;28;20032;-76
2023/01/04 12:25:44;;;;;;;3.03;1.88;;;13.10;90.10;;;;;;5125168;28;20028;-77
2023/01/04 12:28:34;;;;;;;5.82;2.00;;;13.10;90.10;;;;;;5116354;28;20103;-77
2023/01/04 12:31:18;;;;;;;2.60;1.60;;;13.20;90.10;;;;;;5114106;28;20065;-76
2023/01/04 12:33:56;;;;;;;3.40;1.75;;;13.20;90.10;;;;;;5115321;28;20038;-77
2023/01/04 12:36:37;;;;;;;5.13;2.15;;;13.20;90.10;;;;;;5115630;28;20441;-77
2023/01/04 12:39:12;;;;;;;4.28;2.13;;;13.20;90.10;;;;;;5115719;28;20129;-77
2023/01/04 12:41:38;;;;;;;3.58;2.10;;;13.20;90.00;;;;;;5116119;28;20042;-76
2023/01/04 12:44:38;;;;;;;4.78;2.17;;;13.20;90.00;;;;;;5115870;28;20073;-76
2023/01/04 12:50:02;;;;;;;6.18;2.60;;;13.30;90.00;;;;;;5115117;28;20030;-76
2023/01/04 12:52:28;;;;;;;4.65;2.28;;;13.30;90.00;;;;;;5113500;28;20092;-77
2023/01/04 12:54:56;;;;;;;5.45;2.35;;;13.30;89.90;;;;;;5106776;28;20460;-79
2023/01/04 12:57:36;;;;;;;5.00;2.30;;;13.30;89.90;;;;;;5116966;27;20104;-77
2023/01/04 13:00:18;;;;;;;5.13;2.45;;;13.40;89.90;;;;;;5106167;28;20482;-76
2023/01/04 13:03:13;;;;;;;8.07;2.35;;;13.40;89.90;;;;;;5111229;28;20028;-77
2023/01/04 13:05:50;;;;;;;6.30;2.38;;;13.40;89.80;;;;;;5114057;27;20020;-77
2023/01/04 13:08:17;;;;;;;5.43;1.85;;;13.40;89.70;;;;;;5114355;27;20088;-77
2023/01/04 13:10:51;;;;;;;5.70;2.47;;;13.40;89.70;;;;;;5119570;27;20024;-77
2023/01/04 13:13:42;;;;;;;6.35;2.50;;;13.40;89.70;;;;;;5107909;27;20031;-77
2023/01/04 13:16:10;;;;;;;7.25;2.30;;;13.40;89.60;;;;;;5114742;28;20047;-76
2023/01/04 13:18:41;;;;;;;;;;;13.40;89.50;;;;;;5111990;28;20032;-76
2023/01/04 13:21:16;;;;;;;5.70;2.50;;;13.50;89.50;;;;;;5115358;28;20321;-75
2023/01/04 13:23:51;;;;;;;4.47;2.10;;;13.50;89.40;;;;;;5107417;28;20379;-75
2023/01/04 13:26:38;;;;;;;6.30;2.30;;;13.50;89.30;;;;;;5112670;27;20028;-76
2023/01/04 13:29:20;;;;;;;6.07;2.03;;;13.50;89.30;;;;;;5105374;27;20031;-76
2023/01/04 13:31:57;;;;;;;6.00;2.30;;;13.50;89.30;;;;;;5110339;28;20020;-78
2023/01/04 13:34:34;;;;;;;5.57;2.33;;;13.50;89.30;;;;;;5107051;27;20592;-76
2023/01/04 13:37:09;;;;;;;6.28;2.20;;;13.50;89.20;;;;;;5106981;27;20046;-77
2023/01/04 13:39:46;;;;;;;5.68;2.22;;;13.50;89.10;;;;;;5107819;28;20321;-77
2023/01/04 13:42:21;;;;;;;6.70;2.38;;;13.50;89.10;;;;;;5108578;27;20039;-78
2023/01/04 13:45:18;;;;;;;5.40;2.30;;;13.50;89.10;;;;;;5106413;27;20027;-77
2023/01/04 13:47:45;;;;;;;5.53;2.22;;;13.60;89.10;;;;;;5108404;28;20024;-79
2023/01/04 13:50:28;;;;;;;5.78;2.47;;;13.60;89.00;;;;;;5109723;27;20548;-76
2023/01/04 13:52:54;;;;;;;6.95;2.33;;;13.60;88.90;;;;;;5103102;27;20046;-76
2023/01/04 13:55:29;;;;;;;6.30;2.50;;;13.60;88.80;;;;;;5112874;27;20027;-78
2023/01/04 13:58:04;;;;;;;6.15;2.65;;;13.60;88.80;;;;;;5111865;27;20035;-80
2023/01/04 14:00:34;;;;;;;7.50;2.88;;;13.60;88.80;;;;;;5106918;28;20344;-79